CYLL

Lloydminster Airport

Lloydminster, Alberta, Canada
METAR CYLL 182000Z 10007KT 15SM OVC100 M23/M26 A3026 RMK AC8 SLP334
Observed Flight Rules
Jan-18 @ 20:00 UTC (11 minutes ago) Visual Flight Rules
Wind Visibility Clouds
100° at 7 knots 15 miles
  • Overcast at 10,000' AGL
Temperatures Readings
Current -23°C / -9°F
Dewpoint -26°C / -15°F
Humidity 77%
Altimeter 30.26" Hg
Pressure 1033.4 hPa
Elevation 669
METAR CYLL 182000Z 10007KT 15SM OVC100 M23/M26 A3026 RMK AC8 SLP334
Observed Flight Rules
Jan-18 @ 20:00 UTC
(11 minutes ago)
VFR
Wind Visibility
100° at 7 knots 15 miles
Clouds
  • Overcast at 10,000' AGL
Temperature Dewpoint
-23°C / -9°F -26°C / -15°F
Humidity Altimeter Pressure
77% 30.26" Hg 1033.4 hPa